createdAt,value
2018-09-20T05:31:12.698Z,15.50
2018-09-20T05:33:40.879Z,15.60
2018-09-20T05:36:09.060Z,15.60
2018-09-20T05:38:37.232Z,15.70
2018-09-20T05:41:06.356Z,15.70
2018-09-20T05:43:36.514Z,15.60
2018-09-20T05:46:05.594Z,15.60
2018-09-20T05:48:33.766Z,15.60
2018-09-20T05:51:02.558Z,15.60
2018-09-20T05:53:30.762Z,15.60
2018-09-20T05:55:58.953Z,15.50
2018-09-20T05:58:27.154Z,15.40
2018-09-20T06:00:57.261Z,15.40
2018-09-20T06:03:25.486Z,15.30
2018-09-20T06:05:53.701Z,15.40
2018-09-20T06:08:21.843Z,15.20
2018-09-20T06:10:50.201Z,15.10
2018-09-20T06:13:18.503Z,15.10
2018-09-20T06:15:46.635Z,15.10
2018-09-20T06:18:14.834Z,15.10
2018-09-20T06:20:42.990Z,15.10
2018-09-20T06:23:11.166Z,15.10
2018-09-20T06:25:39.320Z,15.20
2018-09-20T06:28:07.487Z,15.10
2018-09-20T06:30:35.681Z,15.20
2018-09-20T06:33:04.883Z,15.20
2018-09-20T06:35:33.639Z,15.30
2018-09-20T06:38:01.813Z,15.30
2018-09-20T06:40:29.971Z,15.20
2018-09-20T06:42:58.139Z,15.30
2018-09-20T06:45:26.303Z,15.50
2018-09-20T06:47:54.478Z,15.50
2018-09-20T06:50:22.650Z,15.50
2018-09-20T06:52:50.863Z,15.70
2018-09-20T06:55:19.022Z,15.80
2018-09-20T06:57:47.192Z,15.90
2018-09-20T07:00:15.370Z,16.10
2018-09-20T07:02:43.553Z,16.30
2018-09-20T07:05:11.722Z,16.40
2018-09-20T07:07:39.890Z,16.60
2018-09-20T07:10:08.063Z,16.80
2018-09-20T07:12:36.230Z,17.30
2018-09-20T07:15:04.419Z,17.50
2018-09-20T07:17:32.634Z,17.70
2018-09-20T07:20:00.821Z,18.20
2018-09-20T07:22:29.019Z,18.40
2018-09-20T07:24:57.194Z,18.60
2018-09-20T07:27:25.392Z,19.00
2018-09-20T07:29:53.558Z,19.30
2018-09-20T07:32:21.730Z,19.60
2018-09-20T07:34:49.905Z,19.60
2018-09-20T07:37:18.075Z,19.70
2018-09-20T07:39:46.248Z,19.90
2018-09-20T07:42:14.425Z,20.00
2018-09-20T07:44:42.638Z,20.10
2018-09-20T07:47:10.823Z,20.20
2018-09-20T07:49:38.995Z,20.30
2018-09-20T07:52:07.185Z,20.50
2018-09-20T07:54:36.063Z,20.50
2018-09-20T07:57:04.328Z,20.50
2018-09-20T07:59:32.514Z,20.70
2018-09-20T08:02:00.752Z,20.70
2018-09-20T08:04:31.795Z,20.80
2018-09-20T08:07:00.066Z,21.00
2018-09-20T08:09:28.941Z,21.00
2018-09-20T08:11:57.085Z,20.90
2018-09-20T08:14:25.243Z,21.00
2018-09-20T08:16:53.419Z,21.10
2018-09-20T08:19:21.590Z,20.90
2018-09-20T08:21:49.770Z,21.00
2018-09-20T08:24:17.938Z,21.10
2018-09-20T08:26:46.127Z,21.00
2018-09-20T08:29:14.303Z,21.00
2018-09-20T08:31:42.491Z,21.10
2018-09-20T08:34:10.629Z,21.20
2018-09-20T08:36:38.806Z,21.20
2018-09-20T08:39:09.306Z,21.30
2018-09-20T08:41:37.535Z,21.40
2018-09-20T08:44:05.969Z,21.40
2018-09-20T08:46:34.167Z,21.40
2018-09-20T08:49:02.350Z,21.50
2018-09-20T08:51:30.538Z,21.50
2018-09-20T08:53:58.730Z,21.60
2018-09-20T08:56:26.905Z,21.70
2018-09-20T08:58:55.075Z,21.80
2018-09-20T09:01:23.242Z,21.70
2018-09-20T09:03:51.426Z,21.90
2018-09-20T09:06:19.598Z,21.90
2018-09-20T09:08:47.796Z,21.80
2018-09-20T09:11:15.966Z,21.90
2018-09-20T09:13:44.166Z,22.00
2018-09-20T09:16:12.319Z,22.00
2018-09-20T09:18:40.497Z,22.10
2018-09-20T09:21:08.666Z,22.30
2018-09-20T09:23:36.834Z,22.30
2018-09-20T09:26:05.007Z,22.30
2018-09-20T09:28:33.254Z,22.30
2018-09-20T09:31:01.398Z,22.40
2018-09-20T09:33:29.594Z,22.40
2018-09-20T09:35:57.768Z,22.50
2018-09-20T09:38:25.994Z,22.60
2018-09-20T09:40:54.170Z,22.50
2018-09-20T09:43:22.360Z,22.60
2018-09-20T09:45:50.538Z,22.60
2018-09-20T09:48:19.016Z,22.60
2018-09-20T09:50:47.205Z,22.60
2018-09-20T09:53:15.653Z,22.70
2018-09-20T09:55:43.820Z,22.70
2018-09-20T09:58:11.973Z,22.80
2018-09-20T10:00:41.735Z,22.90
2018-09-20T10:03:09.919Z,22.80
2018-09-20T10:05:38.162Z,22.80
2018-09-20T10:08:06.350Z,22.90
2018-09-20T10:10:34.523Z,23.00
2018-09-20T10:13:02.688Z,23.10
2018-09-20T10:15:30.887Z,23.20
2018-09-20T10:17:59.056Z,23.30
2018-09-20T10:20:27.259Z,23.30
2018-09-20T10:22:55.429Z,23.30
2018-09-20T10:25:23.590Z,23.40
2018-09-20T10:27:51.758Z,23.50
2018-09-20T10:30:19.942Z,23.50
2018-09-20T10:32:48.137Z,23.60
2018-09-20T10:35:16.313Z,23.70
2018-09-20T10:37:44.517Z,23.80
2018-09-20T10:40:12.692Z,23.60
2018-09-20T10:42:40.886Z,23.60
2018-09-20T10:45:09.077Z,23.70
2018-09-20T10:47:37.245Z,23.90
2018-09-20T10:50:05.560Z,24.00
2018-09-20T10:52:33.730Z,24.10
2018-09-20T10:55:01.928Z,24.10
2018-09-20T10:57:30.095Z,24.40
2018-09-20T10:59:58.280Z,24.40
2018-09-20T11:02:26.463Z,24.40
2018-09-20T11:04:54.623Z,24.50
2018-09-20T11:07:22.800Z,24.50
2018-09-20T11:09:50.976Z,24.50
2018-09-20T11:12:19.140Z,24.50
2018-09-20T11:14:47.349Z,24.40
2018-09-20T11:17:15.568Z,24.60
2018-09-20T11:19:43.796Z,24.60
2018-09-20T11:22:11.992Z,24.70
2018-09-20T11:24:40.223Z,24.80
2018-09-20T11:27:08.472Z,25.00
2018-09-20T11:29:36.734Z,25.10
2018-09-20T11:32:04.951Z,25.10
2018-09-20T11:34:33.144Z,25.30
2018-09-20T11:37:01.364Z,25.40
2018-09-20T11:39:29.587Z,25.40
2018-09-20T11:41:58.412Z,25.70
2018-09-20T11:44:33.221Z,25.90
2018-09-20T11:47:01.443Z,26.10
2018-09-20T11:49:29.666Z,26.40
2018-09-20T11:51:57.886Z,26.50
2018-09-20T11:54:26.125Z,26.70
2018-09-20T11:56:54.554Z,27.20
2018-09-20T11:59:22.758Z,27.70
2018-09-20T12:01:50.997Z,28.10
2018-09-20T12:04:19.180Z,28.80
2018-09-20T12:06:47.376Z,29.40
2018-09-20T12:09:15.582Z,29.80
2018-09-20T12:11:43.784Z,30.00
2018-09-20T12:14:12.916Z,30.80
2018-09-20T12:16:41.134Z,31.20
2018-09-20T12:19:09.351Z,32.50
2018-09-20T12:21:37.569Z,33.50
2018-09-20T12:24:05.779Z,32.80
2018-09-20T12:26:34.043Z,33.20
2018-09-20T12:29:02.444Z,34.00
2018-09-20T12:31:30.681Z,34.70
2018-09-20T12:33:58.889Z,34.90
2018-09-20T12:36:27.095Z,36.20
2018-09-20T12:38:55.630Z,35.20
2018-09-20T12:41:23.831Z,33.80
2018-09-20T12:43:53.247Z,33.80
2018-09-20T12:46:21.459Z,33.80
2018-09-20T12:48:49.703Z,34.30
2018-09-20T12:51:17.924Z,34.20
2018-09-20T12:53:46.174Z,34.60
2018-09-20T12:56:14.335Z,34.10
2018-09-20T12:58:46.824Z,33.50
2018-09-20T13:01:14.529Z,33.50
2018-09-20T13:03:42.717Z,32.20
2018-09-20T13:06:10.940Z,32.80
2018-09-20T13:08:39.125Z,33.00
2018-09-20T13:11:07.401Z,33.00
2018-09-20T13:13:35.668Z,33.70
2018-09-20T13:16:03.974Z,33.90
2018-09-20T13:18:32.516Z,33.60
2018-09-20T13:21:00.737Z,33.50
2018-09-20T13:23:28.978Z,33.80
2018-09-20T13:25:57.224Z,34.80
2018-09-20T13:28:25.484Z,35.00
2018-09-20T13:30:54.578Z,35.70
2018-09-20T13:33:22.845Z,35.90
2018-09-20T13:35:51.074Z,36.40
2018-09-20T13:38:19.327Z,36.60
2018-09-20T13:40:47.598Z,35.50
2018-09-20T13:43:15.898Z,34.00
2018-09-20T13:45:44.076Z,33.70
2018-09-20T13:48:12.419Z,32.90
2018-09-20T13:50:40.677Z,32.70
2018-09-20T13:53:08.930Z,32.70
2018-09-20T13:55:37.209Z,33.20
2018-09-20T13:58:05.482Z,33.00
2018-09-20T14:00:33.691Z,32.20
2018-09-20T14:03:01.940Z,32.20
2018-09-20T14:05:30.200Z,32.90
2018-09-20T14:07:58.438Z,33.20
2018-09-20T14:10:26.655Z,33.20
2018-09-20T14:12:54.903Z,32.90
2018-09-20T14:15:23.204Z,33.20
2018-09-20T14:17:51.435Z,33.10
2018-09-20T14:20:19.683Z,33.60
2018-09-20T14:22:47.949Z,32.90
2018-09-20T14:25:16.228Z,33.20
2018-09-20T14:27:44.494Z,33.70
2018-09-20T14:30:12.708Z,32.90
2018-09-20T14:32:40.948Z,31.70
2018-09-20T14:35:09.160Z,31.30
2018-09-20T14:37:37.425Z,31.70
2018-09-20T14:40:05.677Z,32.10
2018-09-20T14:42:33.895Z,32.40
2018-09-20T14:45:02.152Z,32.50
2018-09-20T14:47:30.381Z,32.60
2018-09-20T14:49:58.615Z,32.60
2018-09-20T14:52:27.361Z,31.80
2018-09-20T14:54:55.603Z,31.40
2018-09-20T14:57:23.819Z,31.20
2018-09-20T14:59:52.064Z,30.70
2018-09-20T15:02:20.278Z,31.00
2018-09-20T15:04:48.627Z,30.90
2018-09-20T15:07:16.849Z,30.80
2018-09-20T15:09:45.106Z,30.80
2018-09-20T15:12:13.327Z,30.60
2018-09-20T15:14:41.588Z,30.60
2018-09-20T15:17:09.848Z,30.70
2018-09-20T15:19:38.093Z,30.90
2018-09-20T15:22:08.177Z,30.80
2018-09-20T15:24:36.486Z,30.70
2018-09-20T15:27:04.712Z,30.30
2018-09-20T15:29:32.968Z,30.40
2018-09-20T15:32:01.279Z,30.50
2018-09-20T15:34:29.528Z,30.30
2018-09-20T15:36:57.755Z,30.20
2018-09-20T15:39:26.005Z,29.20
2018-09-20T15:41:54.257Z,29.00
2018-09-20T15:44:22.500Z,29.10
2018-09-20T15:46:50.802Z,29.20
2018-09-20T15:49:18.984Z,28.90
2018-09-20T15:51:47.220Z,28.80
2018-09-20T15:54:15.443Z,28.80
2018-09-20T15:56:43.668Z,28.90
2018-09-20T15:59:11.928Z,29.10
2018-09-20T16:01:40.160Z,29.20
2018-09-20T16:04:08.367Z,28.80
2018-09-20T16:06:36.570Z,28.50
2018-09-20T16:09:07.304Z,28.40
2018-09-20T16:11:35.551Z,28.60
2018-09-20T16:14:03.763Z,28.60
2018-09-20T16:16:31.982Z,28.50
2018-09-20T16:19:00.192Z,28.40
2018-09-20T16:21:28.509Z,28.30
2018-09-20T16:23:56.701Z,28.10
2018-09-20T16:26:25.043Z,28.10
2018-09-20T16:29:12.207Z,28.20
2018-09-20T16:31:59.716Z,28.10
2018-09-20T16:36:50.729Z,27.90
2018-09-20T16:39:22.873Z,27.70
2018-09-20T16:41:58.007Z,27.20
2018-09-20T16:44:26.229Z,27.00
2018-09-20T16:46:54.455Z,26.80
2018-09-20T16:49:22.675Z,26.70
2018-09-20T16:51:51.141Z,26.60
2018-09-20T16:54:19.363Z,26.50
2018-09-20T16:56:47.627Z,26.40
2018-09-20T16:59:15.810Z,26.20
2018-09-20T17:01:43.975Z,26.10
2018-09-20T17:04:12.227Z,25.90
2018-09-20T17:06:40.503Z,25.60
2018-09-20T17:09:09.259Z,25.40
2018-09-20T17:11:37.520Z,25.20
2018-09-20T17:14:05.780Z,25.00
2018-09-20T17:16:34.062Z,25.00
2018-09-20T17:19:02.258Z,25.00
2018-09-20T17:21:30.493Z,25.10
2018-09-20T17:23:58.727Z,25.10
2018-09-20T17:26:26.944Z,25.00
2018-09-20T17:28:55.215Z,25.00
2018-09-20T17:31:24.130Z,24.90
2018-09-20T17:33:52.785Z,24.80
2018-09-20T17:36:21.686Z,24.80
2018-09-20T17:39:11.217Z,24.80
2018-09-20T17:41:40.519Z,24.60
2018-09-20T17:44:09.306Z,24.60
2018-09-20T17:46:37.565Z,24.40
2018-09-20T17:49:05.851Z,24.20
2018-09-20T17:51:34.715Z,24.00
2018-09-20T17:54:03.472Z,23.90
2018-09-20T17:56:32.165Z,23.70
2018-09-20T17:59:01.604Z,23.50
2018-09-20T18:01:29.805Z,23.50
2018-09-20T18:03:57.976Z,23.20
2018-09-20T18:06:26.210Z,23.10
2018-09-20T18:08:54.369Z,23.00
2018-09-20T18:11:22.570Z,22.80
2018-09-20T18:13:50.742Z,22.50
2018-09-20T18:16:19.165Z,22.30
2018-09-20T18:19:20.721Z,22.30
2018-09-20T18:21:49.250Z,22.10
2018-09-20T18:24:32.055Z,22.10
2018-09-20T18:27:00.251Z,22.00
2018-09-20T18:29:28.422Z,21.90
2018-09-20T18:31:56.619Z,22.20
2018-09-20T18:34:24.834Z,21.90
2018-09-20T18:36:53.287Z,21.80
2018-09-20T18:39:21.460Z,21.80
2018-09-20T18:41:49.654Z,21.80
2018-09-20T18:44:17.828Z,21.80
2018-09-20T18:46:45.993Z,21.60
2018-09-20T18:49:14.181Z,21.60
2018-09-20T18:51:42.350Z,21.40
2018-09-20T18:54:10.602Z,21.20
2018-09-20T18:56:38.726Z,21.20
2018-09-20T18:59:06.875Z,21.20
2018-09-20T19:01:35.062Z,21.10
2018-09-20T19:04:03.258Z,20.90
2018-09-20T19:06:33.789Z,20.90
2018-09-20T19:09:02.739Z,20.80
2018-09-20T19:11:30.909Z,20.80
2018-09-20T19:13:59.070Z,20.70
2018-09-20T19:16:27.236Z,20.70
2018-09-20T19:18:55.419Z,20.60
2018-09-20T19:21:23.630Z,20.40
2018-09-20T19:23:51.790Z,20.40
2018-09-20T19:26:19.962Z,20.30
2018-09-20T19:28:47.427Z,20.30
2018-09-20T19:31:14.906Z,20.40
2018-09-20T19:33:42.373Z,20.20
2018-09-20T19:36:09.869Z,20.10
2018-09-20T19:38:38.203Z,20.00
2018-09-20T19:41:06.949Z,20.00
2018-09-20T19:43:35.486Z,19.90
2018-09-20T19:46:03.282Z,19.90
2018-09-20T19:48:30.911Z,19.80
2018-09-20T19:50:58.606Z,19.70
2018-09-20T19:53:27.034Z,19.70
2018-09-20T19:55:55.436Z,19.60
2018-09-20T19:58:23.672Z,19.40
2018-09-20T20:00:52.300Z,19.50
2018-09-20T20:03:20.685Z,19.30
2018-09-20T20:05:49.398Z,19.20
2018-09-20T20:08:17.859Z,19.30
2018-09-20T20:10:46.169Z,19.20
2018-09-20T20:13:14.485Z,19.20
2018-09-20T20:15:42.974Z,19.20
2018-09-20T20:18:11.539Z,19.10
2018-09-20T20:20:40.092Z,18.90
2018-09-20T20:23:09.659Z,19.00
2018-09-20T20:25:38.314Z,18.80
2018-09-20T20:28:07.860Z,18.90
2018-09-20T20:30:36.155Z,19.00
2018-09-20T20:33:07.173Z,18.90
2018-09-20T20:35:35.572Z,19.00
2018-09-20T20:38:04.303Z,19.00
2018-09-20T20:40:32.742Z,18.80
2018-09-20T20:43:01.223Z,18.70
2018-09-20T20:45:29.472Z,18.60
2018-09-20T20:47:59.038Z,18.60
2018-09-20T20:50:27.371Z,18.50
2018-09-20T20:52:55.672Z,18.40
2018-09-20T20:55:23.785Z,18.50
2018-09-20T20:57:52.658Z,18.50
2018-09-20T21:00:21.018Z,18.50
2018-09-20T21:02:49.552Z,18.40
2018-09-20T21:05:17.715Z,18.30
2018-09-20T21:07:45.966Z,18.30
2018-09-20T21:10:14.547Z,18.30
2018-09-20T21:12:42.997Z,18.20
2018-09-20T21:15:11.218Z,18.20
2018-09-20T21:17:39.461Z,18.20
2018-09-20T21:20:07.738Z,18.20
2018-09-20T21:22:35.914Z,18.30
2018-09-20T21:25:04.105Z,18.40
2018-09-20T21:27:32.341Z,18.40
2018-09-20T21:30:00.561Z,18.50
2018-09-20T21:32:29.115Z,18.40
2018-09-20T21:34:57.347Z,18.40
2018-09-20T21:37:25.572Z,18.20
2018-09-20T21:39:53.842Z,18.10
2018-09-20T21:42:22.055Z,18.00
2018-09-20T21:44:50.286Z,18.00
2018-09-20T21:47:19.399Z,17.90
2018-09-20T21:49:47.578Z,17.80
2018-09-20T21:52:15.740Z,17.70
2018-09-20T21:54:43.972Z,17.60
2018-09-20T21:57:12.224Z,17.40
2018-09-20T21:59:40.412Z,17.50
2018-09-20T22:02:08.591Z,17.40
2018-09-20T22:04:37.816Z,17.40
2018-09-20T22:07:06.051Z,17.40
2018-09-20T22:09:34.279Z,17.40
2018-09-20T22:12:02.521Z,17.40
2018-09-20T22:14:30.757Z,17.20
2018-09-20T22:16:58.990Z,17.10
2018-09-20T22:19:27.197Z,17.30
2018-09-20T22:21:55.457Z,17.40
2018-09-20T22:24:23.680Z,17.30
2018-09-20T22:26:51.901Z,17.30
2018-09-20T22:29:20.119Z,17.20
2018-09-20T22:31:48.666Z,17.30
2018-09-20T22:34:17.755Z,17.40
2018-09-20T22:36:45.969Z,17.30
2018-09-20T22:39:14.204Z,17.20
2018-09-20T22:41:42.411Z,17.20
2018-09-20T22:44:11.513Z,17.30
2018-09-20T22:46:39.698Z,17.30
2018-09-20T22:49:07.912Z,17.20
2018-09-20T22:51:36.139Z,17.10
2018-09-20T22:54:04.346Z,17.10
2018-09-20T22:56:32.584Z,17.10
2018-09-20T22:59:01.686Z,17.10
